Time;durP1;ratioP1;P1;durP2;ratioP2;P2;SDS_P1;SDS_P2;PMS_P1;PMS_P2;Temp;Humidity;BMP_temperature;BMP_pressure;BME280_temperature;BME280_humidity;BME280_pressure;Samples;Min_cycle;Max_cycle;Signal;HPM_P1;HPM_P2
2023/02/06 06:00:28;;;;;;;;;6.00;6.00;;;;;;;;6279796;22;46561;31
2023/02/06 06:02:53;;;;;;;;;8.00;6.67;;;;;;;;6274218;22;45374;-62
2023/02/06 06:05:20;;;;;;;;;6.33;5.33;;;;;;;;6275333;22;45604;-61
2023/02/06 06:07:45;;;;;;;;;8.67;4.00;;;;;;;;6273206;22;45697;-62
2023/02/06 06:10:10;;;;;;;;;11.33;6.00;;;;;;;;6276071;22;45256;-63
2023/02/06 06:12:35;;;;;;;;;14.67;6.33;;;;;;;;6276405;22;45354;-61
2023/02/06 06:15:00;;;;;;;;;6.67;6.33;;;;;;;;6275948;22;45302;-61
2023/02/06 06:17:26;;;;;;;;;9.33;7.00;;;;;;;;6276621;22;45245;-61
2023/02/06 06:19:51;;;;;;;;;14.67;8.67;;;;;;;;6274687;22;45398;-62
2023/02/06 06:22:16;;;;;;;;;10.67;6.67;;;;;;;;6276743;22;45589;-62
2023/02/06 06:24:41;;;;;;;;;8.00;7.33;;;;;;;;6248413;22;45243;-62
2023/02/06 06:27:09;;;;;;;;;7.67;6.00;;;;;;;;6277043;22;45421;-62
2023/02/06 06:29:34;;;;;;;;;12.00;7.00;;;;;;;;6276114;22;45294;-62
2023/02/06 06:31:59;;;;;;;;;11.67;8.33;;;;;;;;6270103;22;45569;-63
2023/02/06 06:34:26;;;;;;;;;8.67;7.67;;;;;;;;6274853;22;45201;-63
2023/02/06 06:36:51;;;;;;;;;14.50;11.50;;;;;;;;6274069;22;46123;-63
2023/02/06 06:39:16;;;;;;;;;10.33;7.00;;;;;;;;6275776;22;45283;-62
2023/02/06 06:41:41;;;;;;;;;12.33;8.00;;;;;;;;6275203;22;45413;-63
2023/02/06 06:44:06;;;;;;;;;10.33;9.00;;;;;;;;6275930;22;45666;-63
2023/02/06 06:46:32;;;;;;;;;9.33;7.00;;;;;;;;6275716;22;46208;-62
2023/02/06 06:48:57;;;;;;;;;9.00;8.00;;;;;;;;6275081;22;45291;-62
2023/02/06 06:51:22;;;;;;;;;9.33;7.67;;;;;;;;6272592;22;46024;-62
2023/02/06 06:53:47;;;;;;;;;11.67;8.67;;;;;;;;6270203;22;45856;-63
2023/02/06 06:56:13;;;;;;;;;15.00;8.33;;;;;;;;6274515;22;46836;-62
2023/02/06 06:58:39;;;;;;;;;14.00;7.00;;;;;;;;6274920;22;45372;-63
2023/02/06 07:01:04;;;;;;;;;16.33;9.33;;;;;;;;6284963;22;45637;-63
2023/02/06 07:03:29;;;;;;;;;9.67;8.00;;;;;;;;6306869;22;45509;-65
2023/02/06 07:05:54;;;;;;;;;10.75;7.25;;;;;;;;6305460;22;45463;-62
2023/02/06 07:08:20;;;;;;;;;8.33;8.00;;;;;;;;6306081;22;45366;-62
2023/02/06 07:10:46;;;;;;;;;20.75;14.75;;;;;;;;6306208;22;45384;-62
2023/02/06 07:13:11;;;;;;;;;13.50;10.50;;;;;;;;6305983;22;45301;-61
2023/02/06 07:15:36;;;;;;;;;17.25;9.25;;;;;;;;6306024;22;45337;-62
2023/02/06 07:18:01;;;;;;;;;21.33;7.00;;;;;;;;6306033;22;45346;-62
2023/02/06 07:20:27;;;;;;;;;12.00;7.33;;;;;;;;6305491;22;45242;-61
2023/02/06 07:22:52;;;;;;;;;12.00;8.00;;;;;;;;6302959;22;45409;-62
2023/02/06 07:25:19;;;;;;;;;12.75;9.00;;;;;;;;6304854;22;46047;-62
2023/02/06 07:27:44;;;;;;;;;9.67;6.00;;;;;;;;6305071;22;45737;-62
2023/02/06 07:30:09;;;;;;;;;10.67;8.33;;;;;;;;6305991;22;45200;-58
2023/02/06 07:32:35;;;;;;;;;12.25;8.25;;;;;;;;6306145;22;45651;-59
2023/02/06 07:35:00;;;;;;;;;15.00;8.75;;;;;;;;6305272;22;46229;-60
2023/02/06 07:37:26;;;;;;;;;12.00;10.50;;;;;;;;6305596;22;45333;-60
2023/02/06 07:39:51;;;;;;;;;16.50;13.75;;;;;;;;6303888;22;45414;-59
2023/02/06 07:42:16;;;;;;;;;12.75;10.50;;;;;;;;6305843;22;45468;-59
2023/02/06 07:44:41;;;;;;;;;17.67;12.33;;;;;;;;6277678;22;46063;-60
2023/02/06 07:47:07;;;;;;;;;13.00;10.67;;;;;;;;6306475;22;45350;-60
2023/02/06 07:49:32;;;;;;;;;17.00;10.67;;;;;;;;6305781;22;45391;-61
2023/02/06 07:51:58;;;;;;;;;16.00;7.00;;;;;;;;6304935;22;45511;-60
2023/02/06 07:54:23;;;;;;;;;20.67;12.33;;;;;;;;6306014;22;45448;-61
2023/02/06 07:56:48;;;;;;;;;20.00;13.75;;;;;;;;6306202;22;45344;-60
2023/02/06 07:59:13;;;;;;;;;18.00;15.75;;;;;;;;6305789;22;45265;-61
2023/02/06 08:01:38;;;;;;;;;12.50;12.00;;;;;;;;6305928;22;45664;-61
2023/02/06 08:04:04;;;;;;;;;26.00;13.75;;;;;;;;6305534;22;46960;-63
2023/02/06 08:06:29;;;;;;;;;18.50;15.00;;;;;;;;6305987;22;45366;-60
2023/02/06 08:08:55;;;;;;;;;18.00;13.67;;;;;;;;6306916;22;45315;-60
2023/02/06 08:11:22;;;;;;;;;12.25;12.25;;;;;;;;6308259;22;45452;-60
2023/02/06 08:13:47;;;;;;;;;12.67;9.33;;;;;;;;6306932;22;46855;-60
2023/02/06 08:16:14;;;;;;;;;10.67;8.00;;;;;;;;6305635;22;45375;-60
2023/02/06 08:18:39;;;;;;;;;12.67;10.33;;;;;;;;6307853;22;45651;-60
2023/02/06 08:21:08;;;;;;;;;14.00;10.00;;;;;;;;6307272;22;45216;-60
2023/02/06 08:23:33;;;;;;;;;13.33;10.67;;;;;;;;6308128;22;46065;-60
2023/02/06 08:26:07;;;;;;;;;25.25;21.50;;;;;;;;6307886;22;45315;-59
2023/02/06 08:28:34;;;;;;;;;18.75;13.00;;;;;;;;6307812;22;45276;-60
2023/02/06 08:30:59;;;;;;;;;13.50;12.75;;;;;;;;6307428;22;45404;-60
2023/02/06 08:33:24;;;;;;;;;27.00;12.00;;;;;;;;6307839;22;45278;-60
2023/02/06 08:35:50;;;;;;;;;14.67;12.00;;;;;;;;6308070;22;45483;-60
2023/02/06 08:38:15;;;;;;;;;18.00;12.33;;;;;;;;6308391;22;45279;-60
2023/02/06 08:40:40;;;;;;;;;18.67;12.00;;;;;;;;6308477;22;45360;-59
2023/02/06 08:43:05;;;;;;;;;12.00;7.67;;;;;;;;6307964;22;45757;-59
2023/02/06 08:45:30;;;;;;;;;10.00;9.00;;;;;;;;6308647;22;45329;-61
2023/02/06 08:47:56;;;;;;;;;10.67;9.00;;;;;;;;6308066;22;45497;-60
2023/02/06 08:50:21;;;;;;;;;14.33;10.33;;;;;;;;6308268;22;45232;-60
2023/02/06 08:52:46;;;;;;;;;16.00;10.33;;;;;;;;6307698;22;46422;-60
2023/02/06 08:55:12;;;;;;;;;24.00;12.33;;;;;;;;6308214;22;45324;-60
2023/02/06 08:57:37;;;;;;;;;8.00;7.67;;;;;;;;6308511;22;45294;-59
2023/02/06 09:00:02;;;;;;;;;13.67;8.67;;;;;;;;6308058;22;45305;-60
2023/02/06 09:02:28;;;;;;;;;12.33;12.33;;;;;;;;6308125;22;45259;-60
2023/02/06 09:04:53;;;;;;;;;11.00;9.33;;;;;;;;6307941;22;45275;-61
2023/02/06 09:07:18;;;;;;;;;15.67;10.00;;;;;;;;6308180;22;45224;-59
2023/02/06 09:09:43;;;;;;;;;14.00;10.50;;;;;;;;6307855;22;45445;-60
2023/02/06 09:12:10;;;;;;;;;18.33;13.33;;;;;;;;6308201;22;45561;-59
2023/02/06 09:14:36;;;;;;;;;13.00;12.00;;;;;;;;6308131;22;45402;-60
2023/02/06 09:17:01;;;;;;;;;18.33;12.67;;;;;;;;6307362;22;45313;-61
2023/02/06 09:19:26;;;;;;;;;15.67;12.00;;;;;;;;6308074;22;45344;-61
2023/02/06 09:21:52;;;;;;;;;16.67;16.33;;;;;;;;6307422;22;46072;-61
2023/02/06 09:24:17;;;;;;;;;14.00;10.00;;;;;;;;6307724;22;45560;-61
2023/02/06 09:26:42;;;;;;;;;15.33;13.67;;;;;;;;6307464;22;45358;-61
2023/02/06 09:29:09;;;;;;;;;14.67;14.00;;;;;;;;6306383;22;45378;-60
2023/02/06 09:31:37;;;;;;;;;15.67;11.67;;;;;;;;6307292;22;45227;-60
2023/02/06 09:34:03;;;;;;;;;25.33;14.00;;;;;;;;6307144;22;45292;-60
2023/02/06 09:36:32;;;;;;;;;16.67;13.33;;;;;;;;6308234;22;45593;-60
2023/02/06 09:38:58;;;;;;;;;17.00;12.00;;;;;;;;6304968;22;45855;-60
2023/02/06 09:41:26;;;;;;;;;15.00;14.00;;;;;;;;6307131;22;46897;-60
2023/02/06 09:44:03;;;;;;;;;13.33;9.67;;;;;;;;6307321;22;45298;-60
2023/02/06 09:46:31;;;;;;;;;13.00;9.00;;;;;;;;6308215;22;45457;-59
2023/02/06 09:48:57;;;;;;;;;22.00;17.33;;;;;;;;6307486;22;45274;-60
2023/02/06 09:51:25;;;;;;;;;14.33;13.00;;;;;;;;6307859;22;45326;-60
2023/02/06 09:53:54;;;;;;;;;14.33;9.33;;;;;;;;6307410;22;45410;-60
2023/02/06 09:56:19;;;;;;;;;17.67;10.67;;;;;;;;6308279;22;45271;-59
2023/02/06 09:58:58;;;;;;;;;13.75;10.75;;;;;;;;6307659;22;45287;-60
2023/02/06 10:01:28;;;;;;;;;9.00;8.33;;;;;;;;6274231;22;45494;-60
2023/02/06 10:04:26;;;;;;;;;15.67;12.00;;;;;;;;6275501;22;45321;-60
2023/02/06 10:06:54;;;;;;;;;15.00;11.00;;;;;;;;6240351;22;45795;-60
2023/02/06 10:09:25;;;;;;;;;15.00;9.00;;;;;;;;6276737;22;45572;-60
2023/02/06 10:11:51;;;;;;;;;17.00;15.67;;;;;;;;6276431;22;46014;-60
2023/02/06 10:14:39;;;;;;;;;14.33;12.67;;;;;;;;6276129;22;45325;-60
2023/02/06 10:17:24;;;;;;;;;13.33;8.00;;;;;;;;6266995;22;45638;-60
2023/02/06 10:20:05;;;;;;;;;11.67;11.33;;;;;;;;6275387;22;45618;-59
2023/02/06 10:22:42;;;;;;;;;11.67;11.67;;;;;;;;6276586;22;45928;-61
2023/02/06 10:25:10;;;;;;;;;19.33;14.00;;;;;;;;6276325;22;45425;-61
2023/02/06 10:27:36;;;;;;;;;14.33;9.67;;;;;;;;6275691;22;45266;-60
2023/02/06 10:30:02;;;;;;;;;15.00;13.33;;;;;;;;6275668;22;45281;-60
2023/02/06 10:32:37;;;;;;;;;23.67;17.33;;;;;;;;6275792;22;45305;-60
2023/02/06 10:35:18;;;;;;;;;10.33;9.33;;;;;;;;6276174;22;45240;-61
2023/02/06 10:37:46;;;;;;;;;12.00;11.00;;;;;;;;6276299;22;45244;-60
2023/02/06 10:40:15;;;;;;;;;19.67;13.00;;;;;;;;6276344;22;45399;-60
2023/02/06 10:42:45;;;;;;;;;14.33;12.33;;;;;;;;6276071;22;45454;-60
2023/02/06 10:45:29;;;;;;;;;10.33;7.67;;;;;;;;6276007;22;45742;-60
2023/02/06 10:47:57;;;;;;;;;13.67;10.67;;;;;;;;6275831;22;45215;-60
2023/02/06 10:50:31;;;;;;;;;13.33;12.00;;;;;;;;6276754;22;45374;-61
2023/02/06 10:53:00;;;;;;;;;15.00;9.67;;;;;;;;6275842;22;45361;-60
2023/02/06 10:55:27;;;;;;;;;16.33;12.67;;;;;;;;6276773;22;45544;-60
2023/02/06 10:58:11;;;;;;;;;14.00;12.00;;;;;;;;6275487;22;45362;-60
2023/02/06 11:00:37;;;;;;;;;19.00;13.00;;;;;;;;6281714;22;45663;-60
2023/02/06 11:03:05;;;;;;;;;10.33;10.00;;;;;;;;6306657;22;45385;-61
2023/02/06 11:05:31;;;;;;;;;10.33;10.33;;;;;;;;6307719;22;45251;-60
2023/02/06 11:08:16;;;;;;;;;12.67;9.33;;;;;;;;6307110;22;45567;-60
2023/02/06 11:10:42;;;;;;;;;14.33;9.00;;;;;;;;6295057;22;45289;-61
2023/02/06 11:13:13;;;;;;;;;12.67;11.00;;;;;;;;6307380;22;45145;-60
2023/02/06 11:15:50;;;;;;;;;18.33;12.33;;;;;;;;6307024;22;45646;-60
2023/02/06 11:18:17;;;;;;;;;13.33;11.00;;;;;;;;6306878;22;45303;-60
2023/02/06 11:20:43;;;;;;;;;14.33;10.00;;;;;;;;6307050;22;45387;-61
2023/02/06 11:23:16;;;;;;;;;11.67;8.00;;;;;;;;6307362;22;46129;-61
2023/02/06 11:25:42;;;;;;;;;15.33;11.33;;;;;;;;6306990;22;45194;-61
2023/02/06 11:28:17;;;;;;;;;14.67;9.33;;;;;;;;6307792;22;45226;-61
2023/02/06 11:30:53;;;;;;;;;6.00;5.33;;;;;;;;6279264;22;45442;-61
2023/02/06 11:33:24;;;;;;;;;10.00;8.67;;;;;;;;6306844;22;46127;-60
2023/02/06 11:35:58;;;;;;;;;12.00;10.00;;;;;;;;6306556;22;45310;-60
2023/02/06 11:38:26;;;;;;;;;15.00;12.67;;;;;;;;6307226;22;45514;-60
2023/02/06 11:41:00;;;;;;;;;10.00;8.00;;;;;;;;6307537;22;45469;-60
2023/02/06 11:43:54;;;;;;;;;10.33;8.67;;;;;;;;6308153;22;46294;-60
2023/02/06 11:46:27;;;;;;;;;10.67;10.33;;;;;;;;6306013;22;45714;-60
2023/02/06 11:48:57;;;;;;;;;11.33;10.00;;;;;;;;6308542;22;45614;-60
2023/02/06 11:51:23;;;;;;;;;10.33;8.00;;;;;;;;6309354;22;45404;-60
2023/02/06 11:53:54;;;;;;;;;10.00;8.00;;;;;;;;6307545;22;45290;-61
2023/02/06 11:56:20;;;;;;;;;12.67;10.67;;;;;;;;6308527;22;45619;-60
2023/02/06 11:58:45;;;;;;;;;8.67;8.67;;;;;;;;6307748;22;45365;-60
2023/02/06 12:01:18;;;;;;;;;15.00;11.00;;;;;;;;6308613;22;45417;-60
2023/02/06 12:03:49;;;;;;;;;12.67;11.00;;;;;;;;6307740;22;45354;-60
2023/02/06 12:06:17;;;;;;;;;13.67;9.00;;;;;;;;6308718;22;45204;-60
2023/02/06 12:08:45;;;;;;;;;10.67;9.33;;;;;;;;6307965;22;45301;-60
2023/02/06 12:11:31;;;;;;;;;11.33;9.00;;;;;;;;6308221;22;45453;-61
2023/02/06 12:14:18;;;;;;;;;14.67;10.67;;;;;;;;6306524;22;45960;-60
2023/02/06 12:16:44;;;;;;;;;18.00;12.67;;;;;;;;6307376;22;45368;-60
2023/02/06 12:19:14;;;;;;;;;8.33;7.00;;;;;;;;6308906;22;45323;-60
2023/02/06 12:21:41;;;;;;;;;15.67;10.00;;;;;;;;6308031;22;45330;-60
2023/02/06 12:24:33;;;;;;;;;16.33;11.00;;;;;;;;6308390;22;45282;-60
2023/02/06 12:27:01;;;;;;;;;11.67;10.67;;;;;;;;6304579;22;45354;-60
2023/02/06 12:29:33;;;;;;;;;14.33;11.33;;;;;;;;6308229;22;45387;-60
2023/02/06 12:32:08;;;;;;;;;13.33;9.33;;;;;;;;6307417;22;45267;-60
2023/02/06 12:34:48;;;;;;;;;12.67;10.67;;;;;;;;6279968;22;45418;-61
2023/02/06 12:37:34;;;;;;;;;12.00;9.00;;;;;;;;6307883;22;45211;-60
2023/02/06 12:40:00;;;;;;;;;13.33;10.00;;;;;;;;6307576;22;45401;-60
2023/02/06 12:42:28;;;;;;;;;11.00;11.00;;;;;;;;6308258;22;45215;-60
2023/02/06 12:44:53;;;;;;;;;10.33;9.67;;;;;;;;6307751;22;46134;-61
2023/02/06 12:47:23;;;;;;;;;12.00;11.67;;;;;;;;6308427;22;45176;-60
2023/02/06 12:49:58;;;;;;;;;19.33;11.67;;;;;;;;6308077;22;45297;-60
2023/02/06 12:52:29;;;;;;;;;15.00;8.33;;;;;;;;6307361;22;45223;-60
2023/02/06 12:55:07;;;;;;;;;10.00;8.33;;;;;;;;6307308;22;46991;-60
2023/02/06 12:57:33;;;;;;;;;14.33;11.67;;;;;;;;6307817;22;45234;-59
2023/02/06 13:00:11;;;;;;;;;13.33;11.33;;;;;;;;6307687;22;45255;-60
2023/02/06 13:02:55;;;;;;;;;13.00;10.67;;;;;;;;6307695;22;45422;-60
2023/02/06 13:05:24;;;;;;;;;13.00;10.50;;;;;;;;6307631;22;46228;-60
2023/02/06 13:07:50;;;;;;;;;12.00;10.33;;;;;;;;6307402;22;45188;-60
2023/02/06 13:10:17;;;;;;;;;14.00;10.00;;;;;;;;6308624;22;45327;-60
2023/02/06 13:12:51;;;;;;;;;14.33;10.33;;;;;;;;6307591;22;45243;-60
2023/02/06 13:15:21;;;;;;;;;11.67;7.67;;;;;;;;6308393;22;47061;-61
2023/02/06 13:17:46;;;;;;;;;10.00;7.67;;;;;;;;6307548;22;45390;-60
2023/02/06 13:20:13;;;;;;;;;14.00;12.67;;;;;;;;6308232;22;45339;-60
2023/02/06 13:22:40;;;;;;;;;12.00;9.33;;;;;;;;6308793;22;45250;-60
2023/02/06 13:25:23;;;;;;;;;13.33;9.67;;;;;;;;6307164;22;46151;-60
2023/02/06 13:27:48;;;;;;;;;12.33;8.33;;;;;;;;6307353;22;45314;-60
2023/02/06 13:30:29;;;;;;;;;8.67;7.67;;;;;;;;6308584;22;45454;-60
2023/02/06 13:33:07;;;;;;;;;9.00;9.00;;;;;;;;6307751;22;45329;-61
2023/02/06 13:35:32;;;;;;;;;8.00;8.00;;;;;;;;6307704;22;46359;-60
2023/02/06 13:38:30;;;;;;;;;7.00;5.00;;;;;;;;6307526;22;45255;-60
2023/02/06 13:41:14;;;;;;;;;9.67;8.33;;;;;;;;6270889;22;45878;-60
2023/02/06 13:43:57;;;;;;;;;8.67;6.67;;;;;;;;6307897;22;45635;-60
2023/02/06 13:46:35;;;;;;;;;11.33;8.33;;;;;;;;6307644;22;45307;-60
2023/02/06 13:49:24;;;;;;;;;8.00;6.00;;;;;;;;6307490;22;45340;-60
2023/02/06 13:52:08;;;;;;;;;10.33;9.00;;;;;;;;6307548;22;45287;-60
2023/02/06 13:54:52;;;;;;;;;8.00;7.00;;;;;;;;6307925;22;45200;-59
2023/02/06 13:57:36;;;;;;;;;10.00;7.33;;;;;;;;6307568;22;46161;-59
2023/02/06 14:00:09;;;;;;;;;12.33;6.00;;;;;;;;6307719;22;45304;-60
2023/02/06 14:02:40;;;;;;;;;12.67;7.00;;;;;;;;6307662;22;45333;-61
2023/02/06 14:05:09;;;;;;;;;10.00;6.33;;;;;;;;6307591;22;45216;-59
2023/02/06 14:07:55;;;;;;;;;13.67;10.33;;;;;;;;6307559;22;46126;-60
2023/02/06 14:13:38;;;;;;;;;9.00;7.33;;;;;;;;6307893;22;45294;-60
2023/02/06 14:16:22;;;;;;;;;9.67;7.00;;;;;;;;6307656;22;45353;-61
2023/02/06 14:18:47;;;;;;;;;7.67;6.33;;;;;;;;6307185;22;45358;-60
2023/02/06 14:21:34;;;;;;;;;8.33;6.67;;;;;;;;6308004;22;45255;-60
2023/02/06 14:23:59;;;;;;;;;6.00;6.00;;;;;;;;6307286;22;45167;-60
2023/02/06 14:26:43;;;;;;;;;5.67;5.00;;;;;;;;6307828;22;45275;-60
2023/02/06 14:29:14;;;;;;;;;7.00;5.00;;;;;;;;6307599;22;45335;-60
2023/02/06 14:31:58;;;;;;;;;6.00;6.00;;;;;;;;6308081;22;45405;-60
2023/02/06 14:34:39;;;;;;;;;8.67;5.33;;;;;;;;6307731;22;45353;-60
2023/02/06 14:37:08;;;;;;;;;7.00;6.00;;;;;;;;6307286;22;45529;-60
2023/02/06 14:39:40;;;;;;;;;6.33;5.00;;;;;;;;6307608;22;46135;-59
2023/02/06 14:42:10;;;;;;;;;4.33;4.33;;;;;;;;6308136;22;45204;-59
2023/02/06 14:44:36;;;;;;;;;6.67;6.00;;;;;;;;6307580;22;45413;-60
2023/02/06 14:47:01;;;;;;;;;7.00;7.00;;;;;;;;6307045;22;45481;-61
2023/02/06 14:49:31;;;;;;;;;7.00;5.33;;;;;;;;6307821;22;46197;-61
2023/02/06 14:51:57;;;;;;;;;6.67;5.33;;;;;;;;6306766;22;45250;-61
2023/02/06 14:54:31;;;;;;;;;3.67;2.67;;;;;;;;6307915;22;45316;-61
2023/02/06 14:56:57;;;;;;;;;7.00;6.00;;;;;;;;6307106;22;45343;-60
2023/02/06 14:59:23;;;;;;;;;9.00;5.33;;;;;;;;6306948;22;46001;-60
2023/02/06 15:01:50;;;;;;;;;5.67;4.00;;;;;;;;6306272;22;45474;-60
2023/02/06 15:04:22;;;;;;;;;4.67;4.67;;;;;;;;6307553;22;45804;-60
2023/02/06 15:07:01;;;;;;;;;4.00;3.00;;;;;;;;6307528;22;45322;-60
2023/02/06 15:09:31;;;;;;;;;5.00;3.67;;;;;;;;6307149;22;45286;-60
2023/02/06 15:11:57;;;;;;;;;4.00;4.00;;;;;;;;6306893;22;45311;-59
2023/02/06 15:14:27;;;;;;;;;4.00;2.33;;;;;;;;6307504;22;45384;-61
2023/02/06 15:16:58;;;;;;;;;7.33;4.67;;;;;;;;6309681;22;45415;-61
2023/02/06 15:19:26;;;;;;;;;3.00;3.00;;;;;;;;6307415;22;46118;-61
2023/02/06 15:21:55;;;;;;;;;5.00;5.00;;;;;;;;6306417;22;45533;-60
2023/02/06 15:24:39;;;;;;;;;7.33;5.00;;;;;;;;6281876;22;45379;-61
2023/02/06 15:27:10;;;;;;;;;11.67;7.00;;;;;;;;6282437;22;45368;-59
2023/02/06 15:29:36;;;;;;;;;4.00;4.00;;;;;;;;6309541;22;45216;-59
2023/02/06 15:32:05;;;;;;;;;4.67;3.00;;;;;;;;6307857;22;45389;-59
2023/02/06 15:34:31;;;;;;;;;7.67;4.00;;;;;;;;6311710;22;45304;-60
2023/02/06 15:36:56;;;;;;;;;7.00;4.33;;;;;;;;6282526;22;45297;-60
2023/02/06 15:39:22;;;;;;;;;5.33;5.00;;;;;;;;6283308;22;46214;-61
2023/02/06 15:41:48;;;;;;;;;3.33;3.33;;;;;;;;6310496;22;45283;-60
2023/02/06 15:44:13;;;;;;;;;3.67;3.33;;;;;;;;6311449;22;45378;-60
2023/02/06 15:46:39;;;;;;;;;5.67;3.67;;;;;;;;6312575;22;45688;-61
2023/02/06 15:49:05;;;;;;;;;3.00;3.00;;;;;;;;6282025;22;48277;-61
2023/02/06 15:51:39;;;;;;;;;5.67;4.67;;;;;;;;6309381;22;45475;-61
2023/02/06 15:54:06;;;;;;;;;3.00;3.00;;;;;;;;6309977;22;45762;-61
2023/02/06 15:56:34;;;;;;;;;6.00;4.67;;;;;;;;6310311;22;45327;-61
2023/02/06 15:59:05;;;;;;;;;5.67;4.00;;;;;;;;6309746;22;45294;-61
2023/02/06 16:01:32;;;;;;;;;5.33;5.00;;;;;;;;6275171;22;45433;-61
2023/02/06 16:04:00;;;;;;;;;9.33;5.00;;;;;;;;6278474;22;45200;-60
2023/02/06 16:06:26;;;;;;;;;5.33;4.00;;;;;;;;6279467;22;45324;-60
2023/02/06 16:08:53;;;;;;;;;5.67;4.67;;;;;;;;6278177;22;46219;-60
2023/02/06 16:14:03;;;;;;;;;10.67;6.00;;;;;;;;6273024;22;45270;-61
2023/02/06 16:16:28;;;;;;;;;5.67;4.00;;;;;;;;6270374;22;45454;-60
2023/02/06 16:18:55;;;;;;;;;5.00;4.00;;;;;;;;6276867;22;46089;-60
2023/02/06 16:21:25;;;;;;;;;5.00;5.00;;;;;;;;6277875;22;45487;-59
2023/02/06 16:23:58;;;;;;;;;11.00;6.00;;;;;;;;6276669;22;45483;-60
2023/02/06 16:26:25;;;;;;;;;6.67;4.00;;;;;;;;6276761;22;45308;-60
2023/02/06 16:28:50;;;;;;;;;5.00;4.00;;;;;;;;6275457;22;45397;-60
2023/02/06 16:31:15;;;;;;;;;7.33;5.33;;;;;;;;6275969;22;45299;-60
2023/02/06 16:33:42;;;;;;;;;8.67;4.33;;;;;;;;6276286;22;45278;-60
2023/02/06 16:36:10;;;;;;;;;11.67;7.00;;;;;;;;6274403;22;45500;-59
2023/02/06 16:38:36;;;;;;;;;8.00;6.67;;;;;;;;6275664;22;46465;-60
2023/02/06 16:41:01;;;;;;;;;5.00;4.00;;;;;;;;6274923;22;45309;-60
2023/02/06 16:43:28;;;;;;;;;7.67;6.00;;;;;;;;6275491;22;45345;-59
2023/02/06 16:45:53;;;;;;;;;7.67;6.33;;;;;;;;6274506;22;45428;-60
2023/02/06 16:48:19;;;;;;;;;6.33;6.00;;;;;;;;6274367;22;46352;-59
2023/02/06 16:50:45;;;;;;;;;6.33;5.33;;;;;;;;6275534;22;45274;-60
2023/02/06 16:53:28;;;;;;;;;10.67;7.00;;;;;;;;6276486;22;45406;-60
2023/02/06 16:55:53;;;;;;;;;12.00;6.67;;;;;;;;6275010;22;45284;-61
2023/02/06 16:58:20;;;;;;;;;10.33;9.33;;;;;;;;6272705;22;45653;-61
2023/02/06 17:00:46;;;;;;;;;10.67;8.67;;;;;;;;6281428;22;45238;-61
2023/02/06 17:03:12;;;;;;;;;11.00;7.00;;;;;;;;6307066;22;45247;-61
2023/02/06 17:05:38;;;;;;;;;7.00;6.67;;;;;;;;6305239;22;45767;-60
2023/02/06 17:08:08;;;;;;;;;10.00;5.67;;;;;;;;6274842;22;47295;-59
2023/02/06 17:10:34;;;;;;;;;8.00;6.00;;;;;;;;6307642;22;45377;-59
2023/02/06 17:12:59;;;;;;;;;12.00;8.67;;;;;;;;6306156;22;45410;-59
2023/02/06 17:15:24;;;;;;;;;9.00;6.67;;;;;;;;6305453;22;45469;-60
2023/02/06 17:17:49;;;;;;;;;6.00;5.33;;;;;;;;6276724;22;46227;-60
2023/02/06 17:20:35;;;;;;;;;9.33;6.00;;;;;;;;6305373;22;45562;-60
2023/02/06 17:23:00;;;;;;;;;8.33;7.67;;;;;;;;6304568;22;45441;-60
2023/02/06 17:25:26;;;;;;;;;7.67;5.33;;;;;;;;6304719;22;45596;-60
2023/02/06 17:27:51;;;;;;;;;6.67;5.33;;;;;;;;6301929;22;45552;-60
2023/02/06 17:30:18;;;;;;;;;9.33;6.00;;;;;;;;6304254;22;45287;-60
2023/02/06 17:32:43;;;;;;;;;13.67;7.33;;;;;;;;6306906;22;45675;-60
2023/02/06 17:35:09;;;;;;;;;7.00;6.67;;;;;;;;6305303;22;45721;-59
2023/02/06 17:37:35;;;;;;;;;9.67;7.00;;;;;;;;6306375;22;45883;-59
2023/02/06 17:40:00;;;;;;;;;12.67;7.67;;;;;;;;6304336;22;45389;-60
2023/02/06 17:42:25;;;;;;;;;9.33;7.00;;;;;;;;6306352;22;45322;-60
2023/02/06 17:44:51;;;;;;;;;14.67;9.33;;;;;;;;6304911;22;45795;-60
2023/02/06 17:47:16;;;;;;;;;13.67;11.67;;;;;;;;6306546;22;45660;-59
2023/02/06 17:49:41;;;;;;;;;15.67;12.33;;;;;;;;6303989;22;45387;-59
2023/02/06 17:52:06;;;;;;;;;17.00;10.67;;;;;;;;6307002;22;45267;-59
2023/02/06 17:54:31;;;;;;;;;15.00;12.00;;;;;;;;6306552;22;45263;-59
2023/02/06 17:56:57;;;;;;;;;25.33;18.67;;;;;;;;6302890;22;46108;-59
2023/02/06 17:59:22;;;;;;;;;16.33;14.33;;;;;;;;6301929;22;45251;-58
2023/02/06 18:01:47;;;;;;;;;14.00;14.00;;;;;;;;6302649;22;45417;-61
2023/02/06 18:04:13;;;;;;;;;13.00;12.00;;;;;;;;6305818;22;45366;-59
2023/02/06 18:06:38;;;;;;;;;13.33;12.00;;;;;;;;6305750;22;46023;-58
2023/02/06 18:09:04;;;;;;;;;18.33;18.00;;;;;;;;6306374;22;45366;-59
2023/02/06 18:11:29;;;;;;;;;17.00;15.67;;;;;;;;6306714;22;45472;-60
2023/02/06 18:13:54;;;;;;;;;20.00;14.67;;;;;;;;6304483;22;45781;-60
2023/02/06 18:16:21;;;;;;;;;16.67;14.67;;;;;;;;6306374;22;45551;-59
2023/02/06 18:18:47;;;;;;;;;24.00;20.00;;;;;;;;6306047;22;45365;-60
2023/02/06 18:21:12;;;;;;;;;14.33;14.00;;;;;;;;6306651;22;45415;-60
2023/02/06 18:23:38;;;;;;;;;17.67;13.33;;;;;;;;6306982;22;45744;-60
2023/02/06 18:26:06;;;;;;;;;23.00;16.67;;;;;;;;6306610;22;45302;-60
2023/02/06 18:28:32;;;;;;;;;19.67;18.00;;;;;;;;6306277;22;45567;-60
2023/02/06 18:31:00;;;;;;;;;18.00;14.67;;;;;;;;6306590;22;45346;-60
2023/02/06 18:33:25;;;;;;;;;23.67;23.33;;;;;;;;6306592;22;45552;-60
2023/02/06 18:35:51;;;;;;;;;15.00;13.33;;;;;;;;6275783;22;46124;-60
2023/02/06 18:38:16;;;;;;;;;18.33;12.00;;;;;;;;6305715;22;45475;-60
2023/02/06 18:40:44;;;;;;;;;13.33;11.00;;;;;;;;6306222;22;45422;-59
2023/02/06 18:43:10;;;;;;;;;12.67;10.67;;;;;;;;6300188;22;45613;-59
2023/02/06 18:45:37;;;;;;;;;17.33;12.00;;;;;;;;6305779;22;45972;-60
2023/02/06 18:48:02;;;;;;;;;20.00;11.67;;;;;;;;6306203;22;45346;-60
2023/02/06 18:50:28;;;;;;;;;17.33;12.33;;;;;;;;6305438;22;45458;-60
2023/02/06 18:52:53;;;;;;;;;17.00;13.33;;;;;;;;6306053;22;45569;-61
2023/02/06 18:55:18;;;;;;;;;18.67;15.67;;;;;;;;6306489;22;46779;-59
2023/02/06 18:57:44;;;;;;;;;17.33;17.33;;;;;;;;6329664;22;45642;-59
2023/02/06 19:00:10;;;;;;;;;24.00;21.67;;;;;;;;6305294;22;45807;-59
2023/02/06 19:02:35;;;;;;;;;26.00;21.33;;;;;;;;6305553;22;45457;-60
2023/02/06 19:05:01;;;;;;;;;24.67;18.33;;;;;;;;6304031;22;45291;-60
2023/02/06 19:07:26;;;;;;;;;30.00;21.67;;;;;;;;6300883;22;45538;-60
2023/02/06 19:09:58;;;;;;;;;15.33;10.33;;;;;;;;6303589;22;45221;-60
2023/02/06 19:12:26;;;;;;;;;28.00;20.00;;;;;;;;6305735;22;45326;-60
2023/02/06 19:14:52;;;;;;;;;31.67;24.00;;;;;;;;6301174;22;45876;-60
2023/02/06 19:17:17;;;;;;;;;23.33;20.00;;;;;;;;6305204;22;45414;-60
2023/02/06 19:19:42;;;;;;;;;21.33;20.00;;;;;;;;6305680;22;45524;-60
2023/02/06 19:22:07;;;;;;;;;19.67;17.00;;;;;;;;6306250;22;45353;-59
2023/02/06 19:24:32;;;;;;;;;17.00;17.00;;;;;;;;6278476;22;47075;-59
2023/02/06 19:26:58;;;;;;;;;19.67;17.00;;;;;;;;6300747;22;45410;-59
2023/02/06 19:29:23;;;;;;;;;24.33;16.33;;;;;;;;6306126;22;45407;-60
2023/02/06 19:31:49;;;;;;;;;18.33;15.67;;;;;;;;6305332;22;45450;-60
2023/02/06 19:34:14;;;;;;;;;20.00;15.67;;;;;;;;6304859;22;46216;-61
2023/02/06 19:36:39;;;;;;;;;16.67;12.33;;;;;;;;6305057;22;45383;-60
2023/02/06 19:39:06;;;;;;;;;17.00;16.67;;;;;;;;6305097;22;45286;-61
2023/02/06 19:41:31;;;;;;;;;13.00;11.67;;;;;;;;6305576;22;45701;-61
2023/02/06 19:43:59;;;;;;;;;18.67;14.33;;;;;;;;6301860;22;46990;-62
2023/02/06 19:46:25;;;;;;;;;15.00;13.67;;;;;;;;6299671;22;45514;-61
2023/02/06 19:48:51;;;;;;;;;16.33;14.00;;;;;;;;6275087;22;45614;-61
2023/02/06 19:51:18;;;;;;;;;21.67;17.33;;;;;;;;6304674;22;45433;-61
2023/02/06 19:53:46;;;;;;;;;20.33;16.33;;;;;;;;6304180;22;46577;-61
2023/02/06 19:56:12;;;;;;;;;24.33;14.67;;;;;;;;6303850;22;45406;-61
2023/02/06 19:58:38;;;;;;;;;16.00;13.33;;;;;;;;6306596;22;45512;-61
2023/02/06 20:01:07;;;;;;;;;17.00;13.67;;;;;;;;6304674;22;45157;-61
2023/02/06 20:03:32;;;;;;;;;23.67;16.67;;;;;;;;6307365;22;45567;-61
2023/02/06 20:06:01;;;;;;;;;17.00;11.00;;;;;;;;6305341;22;45300;-61
2023/02/06 20:08:26;;;;;;;;;22.33;19.33;;;;;;;;6308221;22;45282;-61
2023/02/06 20:10:51;;;;;;;;;22.00;15.00;;;;;;;;6307560;22;45314;-61
2023/02/06 20:13:16;;;;;;;;;22.33;17.00;;;;;;;;6307309;22;45976;-61
2023/02/06 20:15:42;;;;;;;;;18.67;15.67;;;;;;;;6307001;22;45311;-60
2023/02/06 20:18:07;;;;;;;;;12.67;12.67;;;;;;;;6308358;22;45592;-60
2023/02/06 20:20:33;;;;;;;;;15.00;12.33;;;;;;;;6307852;22;45365;-60
2023/02/06 20:22:58;;;;;;;;;21.00;13.67;;;;;;;;6307041;22;45951;-60
2023/02/06 20:25:23;;;;;;;;;23.67;19.00;;;;;;;;6307224;22;45559;-60
2023/02/06 20:27:48;;;;;;;;;22.00;16.67;;;;;;;;6307172;22;45333;-60
2023/02/06 20:30:14;;;;;;;;;23.67;17.00;;;;;;;;6307533;22;45433;-61
2023/02/06 20:32:39;;;;;;;;;19.67;13.33;;;;;;;;6307183;22;47012;-61
2023/02/06 20:35:04;;;;;;;;;25.33;18.00;;;;;;;;6307746;22;45219;-59
2023/02/06 20:37:30;;;;;;;;;15.00;13.00;;;;;;;;6303747;22;45826;-60
2023/02/06 20:39:55;;;;;;;;;25.67;18.33;;;;;;;;6306726;22;45401;-61